North Vancouver, Canada
Current Conditions -  °F | °C
As of 8:00 AM on Thursday 18 Dec 2014 (Local Time) from CYVR Reporting Station
Overcast Overcast  
Wind Chill: 39°   Ceiling: 800
Heat Index: 45°   Visibility: 15mi
Dew Point: 43°   Wind: 12mph
Humidity: 93%   Direction: 80°E
Pressure: 29.91"   Gusts: NA
Location:  49.32°N, 123.07°W
Report Text: CYVR 181600Z 08010KT 15SM FEW004 OVC008 07/06 A2991 RMK SC2SC6 VIS N 10SM SLP128
Loading
Personal Weather Stations






























Interactive Weather Map New forecast layout! Learn more

10-Day Weather Forecast

Advertisements
Track Severe Weather on mobile